Terminal Aerodrome Forecast
Issued by NWS

Current Version | Previous Version | Graphics & Text | Print | Product List | Glossary On
Versions: 1 2 3 4 5 6 7 8 9 10 11 12 13 14 15 16 17 18 19
000
FTUS41 KILN 210500
TAFLUK
TAF
KLUK 210520Z 2106/2206 00000KT P6SM SCT200
     FM211500 22009KT P6SM FEW060 BKN200
     FM212100 23010KT P6SM OVC150
     FM220300 23006KT P6SM VCSH SCT070 OVC100=

USA.gov is the U.S. government's official web portal to all federal, state and local government web resources and services.